sensor_id;sensor_type;location;lat;lon;timestamp;P1;durP1;ratioP1;P2;durP2;ratioP2
78646;SDS011;67961;43.460;3.762;2023-08-21T00:00:05;7.32;;;5.00;;
78646;SDS011;67961;43.460;3.762;2023-08-21T00:02:32;9.82;;;5.35;;
78646;SDS011;67961;43.460;3.762;2023-08-21T00:04:58;13.05;;;5.38;;
78646;SDS011;67961;43.460;3.762;2023-08-21T00:07:23;12.32;;;5.65;;
78646;SDS011;67961;43.460;3.762;2023-08-21T00:09:49;10.98;;;5.20;;
78646;SDS011;67961;43.460;3.762;2023-08-21T00:12:15;11.18;;;5.57;;
78646;SDS011;67961;43.460;3.762;2023-08-21T00:14:40;12.90;;;5.15;;
78646;SDS011;67961;43.460;3.762;2023-08-21T00:17:06;13.25;;;6.07;;
78646;SDS011;67961;43.460;3.762;2023-08-21T00:19:33;13.88;;;5.93;;
78646;SDS011;67961;43.460;3.762;2023-08-21T00:21:59;11.77;;;6.00;;
78646;SDS011;67961;43.460;3.762;2023-08-21T00:24:25;11.27;;;5.10;;
78646;SDS011;67961;43.460;3.762;2023-08-21T00:26:51;10.30;;;5.47;;
78646;SDS011;67961;43.460;3.762;2023-08-21T00:29:17;11.88;;;4.80;;
78646;SDS011;67961;43.460;3.762;2023-08-21T00:31:42;13.00;;;5.80;;
78646;SDS011;67961;43.460;3.762;2023-08-21T00:34:08;13.20;;;5.45;;
78646;SDS011;67961;43.460;3.762;2023-08-21T00:36:34;10.20;;;4.88;;
78646;SDS011;67961;43.460;3.762;2023-08-21T00:38:59;12.07;;;5.40;;
78646;SDS011;67961;43.460;3.762;2023-08-21T00:41:25;12.77;;;5.65;;
78646;SDS011;67961;43.460;3.762;2023-08-21T00:43:51;17.00;;;6.07;;
78646;SDS011;67961;43.460;3.762;2023-08-21T00:46:16;11.27;;;6.05;;
78646;SDS011;67961;43.460;3.762;2023-08-21T00:48:43;15.18;;;5.80;;
78646;SDS011;67961;43.460;3.762;2023-08-21T00:51:09;10.77;;;5.07;;
78646;SDS011;67961;43.460;3.762;2023-08-21T00:53:36;14.25;;;5.85;;
78646;SDS011;67961;43.460;3.762;2023-08-21T00:56:01;10.20;;;5.47;;
78646;SDS011;67961;43.460;3.762;2023-08-21T00:58:27;8.02;;;5.18;;
78646;SDS011;67961;43.460;3.762;2023-08-21T01:00:53;9.00;;;5.28;;
78646;SDS011;67961;43.460;3.762;2023-08-21T01:03:19;11.50;;;5.15;;
78646;SDS011;67961;43.460;3.762;2023-08-21T01:05:45;11.95;;;5.55;;
78646;SDS011;67961;43.460;3.762;2023-08-21T01:08:16;12.15;;;5.95;;
78646;SDS011;67961;43.460;3.762;2023-08-21T01:10:54;12.75;;;5.80;;
78646;SDS011;67961;43.460;3.762;2023-08-21T01:16:04;15.88;;;6.28;;
78646;SDS011;67961;43.460;3.762;2023-08-21T01:18:31;12.05;;;6.03;;
78646;SDS011;67961;43.460;3.762;2023-08-21T01:20:59;10.32;;;6.25;;
78646;SDS011;67961;43.460;3.762;2023-08-21T01:25:57;11.10;;;6.05;;
78646;SDS011;67961;43.460;3.762;2023-08-21T01:28:23;12.45;;;5.85;;
78646;SDS011;67961;43.460;3.762;2023-08-21T01:30:50;13.73;;;6.55;;
78646;SDS011;67961;43.460;3.762;2023-08-21T01:33:22;11.90;;;6.03;;
78646;SDS011;67961;43.460;3.762;2023-08-21T01:35:49;14.85;;;6.97;;
78646;SDS011;67961;43.460;3.762;2023-08-21T01:38:16;12.65;;;7.15;;
78646;SDS011;67961;43.460;3.762;2023-08-21T01:40:42;12.38;;;7.57;;
78646;SDS011;67961;43.460;3.762;2023-08-21T01:43:08;16.17;;;7.05;;
78646;SDS011;67961;43.460;3.762;2023-08-21T01:45:34;13.10;;;8.13;;
78646;SDS011;67961;43.460;3.762;2023-08-21T01:47:59;11.00;;;7.03;;
78646;SDS011;67961;43.460;3.762;2023-08-21T01:50:25;11.20;;;6.95;;
78646;SDS011;67961;43.460;3.762;2023-08-21T01:52:51;11.57;;;6.70;;
78646;SDS011;67961;43.460;3.762;2023-08-21T01:55:16;11.02;;;6.78;;
78646;SDS011;67961;43.460;3.762;2023-08-21T01:57:44;17.23;;;7.10;;
78646;SDS011;67961;43.460;3.762;2023-08-21T02:00:10;9.82;;;6.63;;
78646;SDS011;67961;43.460;3.762;2023-08-21T02:02:37;12.77;;;7.32;;
78646;SDS011;67961;43.460;3.762;2023-08-21T02:05:03;12.23;;;6.78;;
78646;SDS011;67961;43.460;3.762;2023-08-21T02:07:29;16.85;;;8.48;;
78646;SDS011;67961;43.460;3.762;2023-08-21T02:09:54;13.73;;;7.22;;
78646;SDS011;67961;43.460;3.762;2023-08-21T02:12:22;13.27;;;7.00;;
78646;SDS011;67961;43.460;3.762;2023-08-21T02:14:48;10.70;;;6.57;;
78646;SDS011;67961;43.460;3.762;2023-08-21T02:17:14;13.57;;;7.68;;
78646;SDS011;67961;43.460;3.762;2023-08-21T02:19:39;10.55;;;7.22;;
78646;SDS011;67961;43.460;3.762;2023-08-21T02:22:05;12.38;;;7.65;;
78646;SDS011;67961;43.460;3.762;2023-08-21T02:24:31;13.27;;;7.63;;
78646;SDS011;67961;43.460;3.762;2023-08-21T02:26:56;11.63;;;7.80;;
78646;SDS011;67961;43.460;3.762;2023-08-21T02:29:22;13.43;;;7.60;;
78646;SDS011;67961;43.460;3.762;2023-08-21T02:31:47;12.55;;;7.85;;
78646;SDS011;67961;43.460;3.762;2023-08-21T02:34:13;18.65;;;8.55;;
78646;SDS011;67961;43.460;3.762;2023-08-21T02:36:39;14.80;;;8.27;;
78646;SDS011;67961;43.460;3.762;2023-08-21T02:39:04;14.48;;;9.13;;
78646;SDS011;67961;43.460;3.762;2023-08-21T02:41:30;11.02;;;7.50;;
78646;SDS011;67961;43.460;3.762;2023-08-21T02:43:56;10.93;;;8.07;;
78646;SDS011;67961;43.460;3.762;2023-08-21T02:46:24;16.08;;;8.98;;
78646;SDS011;67961;43.460;3.762;2023-08-21T02:48:50;12.20;;;8.13;;
78646;SDS011;67961;43.460;3.762;2023-08-21T02:51:16;14.10;;;8.27;;
78646;SDS011;67961;43.460;3.762;2023-08-21T02:53:41;13.10;;;8.13;;
78646;SDS011;67961;43.460;3.762;2023-08-21T02:56:07;13.82;;;8.73;;
78646;SDS011;67961;43.460;3.762;2023-08-21T02:58:32;17.25;;;8.25;;
78646;SDS011;67961;43.460;3.762;2023-08-21T03:00:58;15.50;;;8.55;;
78646;SDS011;67961;43.460;3.762;2023-08-21T03:03:24;18.00;;;8.93;;
78646;SDS011;67961;43.460;3.762;2023-08-21T03:05:49;14.75;;;9.10;;
78646;SDS011;67961;43.460;3.762;2023-08-21T03:08:15;13.52;;;8.75;;
78646;SDS011;67961;43.460;3.762;2023-08-21T03:10:41;12.48;;;8.32;;
78646;SDS011;67961;43.460;3.762;2023-08-21T03:13:07;15.57;;;8.73;;
78646;SDS011;67961;43.460;3.762;2023-08-21T03:15:34;12.07;;;9.15;;
78646;SDS011;67961;43.460;3.762;2023-08-21T03:18:00;10.77;;;8.50;;
78646;SDS011;67961;43.460;3.762;2023-08-21T03:20:25;10.95;;;8.40;;
78646;SDS011;67961;43.460;3.762;2023-08-21T03:22:51;15.43;;;8.63;;
78646;SDS011;67961;43.460;3.762;2023-08-21T03:25:16;18.10;;;9.88;;
78646;SDS011;67961;43.460;3.762;2023-08-21T03:27:42;15.05;;;9.02;;
78646;SDS011;67961;43.460;3.762;2023-08-21T03:30:09;15.60;;;8.88;;
78646;SDS011;67961;43.460;3.762;2023-08-21T03:32:35;13.60;;;8.25;;
78646;SDS011;67961;43.460;3.762;2023-08-21T03:35:01;18.38;;;8.68;;
78646;SDS011;67961;43.460;3.762;2023-08-21T03:37:26;17.60;;;8.32;;
78646;SDS011;67961;43.460;3.762;2023-08-21T03:39:52;15.48;;;8.70;;
78646;SDS011;67961;43.460;3.762;2023-08-21T03:42:18;12.60;;;9.25;;
78646;SDS011;67961;43.460;3.762;2023-08-21T03:44:43;16.27;;;9.95;;
78646;SDS011;67961;43.460;3.762;2023-08-21T03:47:13;16.00;;;9.00;;
78646;SDS011;67961;43.460;3.762;2023-08-21T03:49:39;20.58;;;9.68;;
78646;SDS011;67961;43.460;3.762;2023-08-21T03:52:04;16.92;;;9.82;;
78646;SDS011;67961;43.460;3.762;2023-08-21T03:54:30;15.93;;;9.43;;
78646;SDS011;67961;43.460;3.762;2023-08-21T03:56:56;15.13;;;9.88;;
78646;SDS011;67961;43.460;3.762;2023-08-21T03:59:21;14.02;;;8.68;;
78646;SDS011;67961;43.460;3.762;2023-08-21T04:01:48;15.52;;;9.55;;
78646;SDS011;67961;43.460;3.762;2023-08-21T04:04:14;14.15;;;10.02;;
78646;SDS011;67961;43.460;3.762;2023-08-21T04:06:40;13.13;;;8.93;;
78646;SDS011;67961;43.460;3.762;2023-08-21T04:09:05;17.20;;;9.45;;
78646;SDS011;67961;43.460;3.762;2023-08-21T04:11:31;13.82;;;8.98;;
78646;SDS011;67961;43.460;3.762;2023-08-21T04:13:58;15.45;;;8.90;;
78646;SDS011;67961;43.460;3.762;2023-08-21T04:16:24;17.98;;;8.48;;
78646;SDS011;67961;43.460;3.762;2023-08-21T04:18:49;11.88;;;8.48;;
78646;SDS011;67961;43.460;3.762;2023-08-21T04:21:15;13.20;;;8.95;;
78646;SDS011;67961;43.460;3.762;2023-08-21T04:23:41;12.30;;;8.68;;
78646;SDS011;67961;43.460;3.762;2023-08-21T04:26:06;17.25;;;9.43;;
78646;SDS011;67961;43.460;3.762;2023-08-21T04:28:33;12.55;;;7.97;;
78646;SDS011;67961;43.460;3.762;2023-08-21T04:30:59;11.70;;;7.85;;
78646;SDS011;67961;43.460;3.762;2023-08-21T04:33:27;12.52;;;8.45;;
78646;SDS011;67961;43.460;3.762;2023-08-21T04:35:53;13.05;;;8.40;;
78646;SDS011;67961;43.460;3.762;2023-08-21T04:38:19;15.40;;;9.27;;
78646;SDS011;67961;43.460;3.762;2023-08-21T04:40:45;13.00;;;8.80;;
78646;SDS011;67961;43.460;3.762;2023-08-21T04:43:10;17.58;;;8.18;;
78646;SDS011;67961;43.460;3.762;2023-08-21T04:45:36;13.30;;;8.43;;
78646;SDS011;67961;43.460;3.762;2023-08-21T04:48:03;14.98;;;8.27;;
78646;SDS011;67961;43.460;3.762;2023-08-21T04:50:30;17.75;;;8.18;;
78646;SDS011;67961;43.460;3.762;2023-08-21T04:52:55;11.27;;;8.23;;
78646;SDS011;67961;43.460;3.762;2023-08-21T04:55:21;14.02;;;9.00;;
78646;SDS011;67961;43.460;3.762;2023-08-21T04:57:47;16.40;;;8.80;;
78646;SDS011;67961;43.460;3.762;2023-08-21T05:00:13;17.83;;;8.57;;
78646;SDS011;67961;43.460;3.762;2023-08-21T05:02:40;13.98;;;8.70;;
78646;SDS011;67961;43.460;3.762;2023-08-21T05:05:06;14.50;;;8.35;;
78646;SDS011;67961;43.460;3.762;2023-08-21T05:07:33;14.93;;;8.27;;
78646;SDS011;67961;43.460;3.762;2023-08-21T05:10:00;13.57;;;8.00;;
78646;SDS011;67961;43.460;3.762;2023-08-21T05:12:26;13.70;;;8.40;;
78646;SDS011;67961;43.460;3.762;2023-08-21T05:14:51;16.40;;;8.60;;
78646;SDS011;67961;43.460;3.762;2023-08-21T05:17:17;12.85;;;8.15;;
78646;SDS011;67961;43.460;3.762;2023-08-21T05:19:42;16.95;;;8.90;;
78646;SDS011;67961;43.460;3.762;2023-08-21T05:22:08;14.52;;;8.32;;
78646;SDS011;67961;43.460;3.762;2023-08-21T05:24:34;12.13;;;7.65;;
78646;SDS011;67961;43.460;3.762;2023-08-21T05:26:59;10.75;;;6.93;;
78646;SDS011;67961;43.460;3.762;2023-08-21T05:29:25;12.20;;;7.82;;
78646;SDS011;67961;43.460;3.762;2023-08-21T05:31:51;10.57;;;7.35;;
78646;SDS011;67961;43.460;3.762;2023-08-21T05:34:16;14.75;;;7.63;;
78646;SDS011;67961;43.460;3.762;2023-08-21T05:36:42;11.38;;;7.50;;
78646;SDS011;67961;43.460;3.762;2023-08-21T05:39:08;12.52;;;8.35;;
78646;SDS011;67961;43.460;3.762;2023-08-21T05:41:34;15.00;;;8.00;;
78646;SDS011;67961;43.460;3.762;2023-08-21T05:43:59;11.90;;;8.57;;
78646;SDS011;67961;43.460;3.762;2023-08-21T05:46:25;11.55;;;8.50;;
78646;SDS011;67961;43.460;3.762;2023-08-21T05:48:51;13.48;;;8.60;;
78646;SDS011;67961;43.460;3.762;2023-08-21T05:51:17;17.67;;;8.60;;
78646;SDS011;67961;43.460;3.762;2023-08-21T05:53:42;11.70;;;7.57;;
78646;SDS011;67961;43.460;3.762;2023-08-21T05:56:08;18.77;;;7.75;;
78646;SDS011;67961;43.460;3.762;2023-08-21T05:58:34;23.70;;;9.63;;
78646;SDS011;67961;43.460;3.762;2023-08-21T06:01:00;16.30;;;7.93;;
78646;SDS011;67961;43.460;3.762;2023-08-21T06:03:25;14.75;;;7.10;;
78646;SDS011;67961;43.460;3.762;2023-08-21T06:05:51;17.65;;;8.00;;
78646;SDS011;67961;43.460;3.762;2023-08-21T06:08:17;18.75;;;7.35;;
78646;SDS011;67961;43.460;3.762;2023-08-21T06:10:43;8.10;;;6.03;;
78646;SDS011;67961;43.460;3.762;2023-08-21T06:13:09;16.85;;;6.53;;
78646;SDS011;67961;43.460;3.762;2023-08-21T06:15:34;11.05;;;6.55;;
78646;SDS011;67961;43.460;3.762;2023-08-21T06:18:00;12.07;;;6.07;;
78646;SDS011;67961;43.460;3.762;2023-08-21T06:20:26;12.10;;;6.80;;
78646;SDS011;67961;43.460;3.762;2023-08-21T06:22:52;14.30;;;6.45;;
78646;SDS011;67961;43.460;3.762;2023-08-21T06:25:17;18.85;;;6.00;;
78646;SDS011;67961;43.460;3.762;2023-08-21T06:27:44;12.57;;;5.22;;
78646;SDS011;67961;43.460;3.762;2023-08-21T06:30:10;9.77;;;5.38;;
78646;SDS011;67961;43.460;3.762;2023-08-21T06:32:36;9.85;;;4.45;;
78646;SDS011;67961;43.460;3.762;2023-08-21T06:35:02;10.90;;;4.43;;
78646;SDS011;67961;43.460;3.762;2023-08-21T06:37:27;11.73;;;4.95;;
78646;SDS011;67961;43.460;3.762;2023-08-21T06:39:53;10.80;;;4.63;;
78646;SDS011;67961;43.460;3.762;2023-08-21T06:42:18;13.20;;;5.20;;
78646;SDS011;67961;43.460;3.762;2023-08-21T06:44:44;12.95;;;5.68;;
78646;SDS011;67961;43.460;3.762;2023-08-21T06:47:10;9.63;;;4.35;;
78646;SDS011;67961;43.460;3.762;2023-08-21T06:49:35;11.10;;;4.68;;
78646;SDS011;67961;43.460;3.762;2023-08-21T06:52:01;8.15;;;4.32;;
78646;SDS011;67961;43.460;3.762;2023-08-21T06:54:28;12.27;;;4.63;;
78646;SDS011;67961;43.460;3.762;2023-08-21T06:56:54;7.70;;;4.38;;
78646;SDS011;67961;43.460;3.762;2023-08-21T06:59:19;10.15;;;4.63;;
78646;SDS011;67961;43.460;3.762;2023-08-21T07:01:45;7.85;;;4.72;;
78646;SDS011;67961;43.460;3.762;2023-08-21T07:04:11;6.72;;;4.40;;
78646;SDS011;67961;43.460;3.762;2023-08-21T07:06:36;16.17;;;4.20;;
78646;SDS011;67961;43.460;3.762;2023-08-21T07:09:02;11.70;;;4.78;;
78646;SDS011;67961;43.460;3.762;2023-08-21T07:11:28;10.98;;;4.95;;
78646;SDS011;67961;43.460;3.762;2023-08-21T07:13:53;9.05;;;4.43;;
78646;SDS011;67961;43.460;3.762;2023-08-21T07:16:20;7.18;;;4.47;;
78646;SDS011;67961;43.460;3.762;2023-08-21T07:18:45;8.02;;;4.47;;
78646;SDS011;67961;43.460;3.762;2023-08-21T07:21:11;14.88;;;5.35;;
78646;SDS011;67961;43.460;3.762;2023-08-21T07:23:37;8.98;;;4.50;;
78646;SDS011;67961;43.460;3.762;2023-08-21T07:26:02;13.35;;;5.22;;
78646;SDS011;67961;43.460;3.762;2023-08-21T07:28:30;10.15;;;4.88;;
78646;SDS011;67961;43.460;3.762;2023-08-21T07:30:56;19.33;;;5.13;;
78646;SDS011;67961;43.460;3.762;2023-08-21T07:33:25;11.38;;;4.55;;
78646;SDS011;67961;43.460;3.762;2023-08-21T07:36:01;10.88;;;4.50;;
78646;SDS011;67961;43.460;3.762;2023-08-21T07:38:29;10.40;;;5.00;;
78646;SDS011;67961;43.460;3.762;2023-08-21T07:41:05;13.73;;;5.15;;
78646;SDS011;67961;43.460;3.762;2023-08-21T07:43:35;15.70;;;4.97;;
78646;SDS011;67961;43.460;3.762;2023-08-21T07:46:02;9.15;;;5.55;;
78646;SDS011;67961;43.460;3.762;2023-08-21T07:48:29;9.00;;;5.18;;
78646;SDS011;67961;43.460;3.762;2023-08-21T07:50:55;14.05;;;5.13;;
78646;SDS011;67961;43.460;3.762;2023-08-21T07:53:21;11.38;;;4.70;;
78646;SDS011;67961;43.460;3.762;2023-08-21T07:55:47;11.50;;;5.05;;
78646;SDS011;67961;43.460;3.762;2023-08-21T07:58:13;9.65;;;5.25;;
78646;SDS011;67961;43.460;3.762;2023-08-21T08:00:38;12.25;;;5.20;;
78646;SDS011;67961;43.460;3.762;2023-08-21T08:03:04;8.05;;;5.07;;
78646;SDS011;67961;43.460;3.762;2023-08-21T08:05:33;9.55;;;5.00;;
78646;SDS011;67961;43.460;3.762;2023-08-21T08:07:59;11.30;;;5.53;;
78646;SDS011;67961;43.460;3.762;2023-08-21T08:10:25;12.63;;;5.18;;
78646;SDS011;67961;43.460;3.762;2023-08-21T08:12:51;9.85;;;5.70;;
78646;SDS011;67961;43.460;3.762;2023-08-21T08:15:18;9.10;;;5.00;;
78646;SDS011;67961;43.460;3.762;2023-08-21T08:17:44;10.48;;;6.05;;
78646;SDS011;67961;43.460;3.762;2023-08-21T08:20:13;13.32;;;5.30;;
78646;SDS011;67961;43.460;3.762;2023-08-21T08:22:39;15.02;;;5.60;;
78646;SDS011;67961;43.460;3.762;2023-08-21T08:25:05;10.90;;;5.20;;
78646;SDS011;67961;43.460;3.762;2023-08-21T08:27:31;14.82;;;5.75;;
78646;SDS011;67961;43.460;3.762;2023-08-21T08:29:57;12.70;;;5.72;;
78646;SDS011;67961;43.460;3.762;2023-08-21T08:32:24;17.85;;;6.03;;
78646;SDS011;67961;43.460;3.762;2023-08-21T08:34:51;14.35;;;6.63;;
78646;SDS011;67961;43.460;3.762;2023-08-21T08:37:17;10.40;;;6.03;;
78646;SDS011;67961;43.460;3.762;2023-08-21T08:39:42;12.07;;;6.18;;
78646;SDS011;67961;43.460;3.762;2023-08-21T08:42:08;13.23;;;6.43;;
78646;SDS011;67961;43.460;3.762;2023-08-21T08:44:35;13.07;;;6.35;;
78646;SDS011;67961;43.460;3.762;2023-08-21T08:47:03;10.38;;;6.05;;
78646;SDS011;67961;43.460;3.762;2023-08-21T08:49:29;13.48;;;6.30;;
78646;SDS011;67961;43.460;3.762;2023-08-21T08:51:56;11.77;;;6.57;;
78646;SDS011;67961;43.460;3.762;2023-08-21T08:54:23;10.15;;;6.90;;
78646;SDS011;67961;43.460;3.762;2023-08-21T08:56:50;11.95;;;7.00;;
78646;SDS011;67961;43.460;3.762;2023-08-21T08:59:16;15.70;;;6.93;;
78646;SDS011;67961;43.460;3.762;2023-08-21T09:01:42;23.30;;;7.13;;
78646;SDS011;67961;43.460;3.762;2023-08-21T09:04:08;11.05;;;6.20;;
78646;SDS011;67961;43.460;3.762;2023-08-21T09:06:34;12.40;;;6.05;;
78646;SDS011;67961;43.460;3.762;2023-08-21T09:08:59;12.70;;;6.38;;
78646;SDS011;67961;43.460;3.762;2023-08-21T09:11:25;14.20;;;6.28;;
78646;SDS011;67961;43.460;3.762;2023-08-21T09:13:52;12.50;;;6.32;;
78646;SDS011;67961;43.460;3.762;2023-08-21T09:16:19;14.73;;;6.93;;
78646;SDS011;67961;43.460;3.762;2023-08-21T09:18:49;12.57;;;6.97;;
78646;SDS011;67961;43.460;3.762;2023-08-21T09:21:23;14.60;;;6.68;;
78646;SDS011;67961;43.460;3.762;2023-08-21T09:23:55;11.93;;;6.22;;
78646;SDS011;67961;43.460;3.762;2023-08-21T09:26:24;9.52;;;5.53;;
78646;SDS011;67961;43.460;3.762;2023-08-21T09:28:50;12.02;;;6.43;;
78646;SDS011;67961;43.460;3.762;2023-08-21T09:31:23;15.73;;;6.05;;
78646;SDS011;67961;43.460;3.762;2023-08-21T09:33:58;9.17;;;6.53;;
78646;SDS011;67961;43.460;3.762;2023-08-21T09:36:26;13.05;;;6.28;;
78646;SDS011;67961;43.460;3.762;2023-08-21T09:38:52;14.85;;;6.68;;
78646;SDS011;67961;43.460;3.762;2023-08-21T09:41:22;7.85;;;6.20;;
78646;SDS011;67961;43.460;3.762;2023-08-21T09:43:48;25.73;;;6.57;;
78646;SDS011;67961;43.460;3.762;2023-08-21T09:46:17;13.77;;;6.03;;
78646;SDS011;67961;43.460;3.762;2023-08-21T09:48:49;13.32;;;6.43;;
78646;SDS011;67961;43.460;3.762;2023-08-21T09:51:16;15.05;;;6.72;;
78646;SDS011;67961;43.460;3.762;2023-08-21T09:53:42;17.08;;;6.95;;
78646;SDS011;67961;43.460;3.762;2023-08-21T09:56:07;11.93;;;6.70;;
78646;SDS011;67961;43.460;3.762;2023-08-21T09:58:35;10.65;;;5.88;;
78646;SDS011;67961;43.460;3.762;2023-08-21T10:01:02;18.08;;;7.30;;
78646;SDS011;67961;43.460;3.762;2023-08-21T10:03:39;19.15;;;8.55;;
78646;SDS011;67961;43.460;3.762;2023-08-21T10:06:07;13.70;;;7.15;;
78646;SDS011;67961;43.460;3.762;2023-08-21T10:08:38;15.93;;;8.48;;
78646;SDS011;67961;43.460;3.762;2023-08-21T10:11:07;13.32;;;7.07;;
78646;SDS011;67961;43.460;3.762;2023-08-21T10:13:34;13.13;;;7.03;;
78646;SDS011;67961;43.460;3.762;2023-08-21T10:16:02;10.70;;;7.47;;
78646;SDS011;67961;43.460;3.762;2023-08-21T10:18:35;12.25;;;6.50;;
78646;SDS011;67961;43.460;3.762;2023-08-21T10:21:17;16.95;;;6.93;;
78646;SDS011;67961;43.460;3.762;2023-08-21T10:23:50;12.10;;;7.65;;
78646;SDS011;67961;43.460;3.762;2023-08-21T10:26:19;19.88;;;7.63;;
78646;SDS011;67961;43.460;3.762;2023-08-21T10:28:50;10.38;;;6.53;;
78646;SDS011;67961;43.460;3.762;2023-08-21T10:31:35;10.32;;;6.30;;
78646;SDS011;67961;43.460;3.762;2023-08-21T10:34:04;15.48;;;7.45;;
78646;SDS011;67961;43.460;3.762;2023-08-21T10:47:21;11.88;;;6.53;;
78646;SDS011;67961;43.460;3.762;2023-08-21T10:49:57;11.57;;;6.07;;
78646;SDS011;67961;43.460;3.762;2023-08-21T10:52:25;18.80;;;9.23;;
78646;SDS011;67961;43.460;3.762;2023-08-21T10:54:53;22.90;;;7.55;;
78646;SDS011;67961;43.460;3.762;2023-08-21T10:57:21;10.38;;;6.85;;
78646;SDS011;67961;43.460;3.762;2023-08-21T10:59:54;15.40;;;5.95;;
78646;SDS011;67961;43.460;3.762;2023-08-21T11:02:24;15.85;;;6.50;;
78646;SDS011;67961;43.460;3.762;2023-08-21T11:04:53;14.32;;;6.10;;
78646;SDS011;67961;43.460;3.762;2023-08-21T11:07:20;14.75;;;6.10;;
78646;SDS011;67961;43.460;3.762;2023-08-21T11:09:46;12.00;;;6.75;;
78646;SDS011;67961;43.460;3.762;2023-08-21T11:12:14;11.75;;;6.55;;
78646;SDS011;67961;43.460;3.762;2023-08-21T11:14:41;13.95;;;5.93;;
78646;SDS011;67961;43.460;3.762;2023-08-21T11:17:08;13.20;;;6.30;;
78646;SDS011;67961;43.460;3.762;2023-08-21T11:19:34;9.18;;;5.93;;
78646;SDS011;67961;43.460;3.762;2023-08-21T11:22:01;10.68;;;6.18;;
78646;SDS011;67961;43.460;3.762;2023-08-21T11:27:02;16.05;;;5.85;;
78646;SDS011;67961;43.460;3.762;2023-08-21T11:29:42;9.75;;;5.72;;
78646;SDS011;67961;43.460;3.762;2023-08-21T11:37:16;10.20;;;5.60;;
78646;SDS011;67961;43.460;3.762;2023-08-21T11:39:49;11.82;;;5.88;;
78646;SDS011;67961;43.460;3.762;2023-08-21T11:42:20;12.93;;;6.10;;
78646;SDS011;67961;43.460;3.762;2023-08-21T11:44:48;12.07;;;5.68;;
78646;SDS011;67961;43.460;3.762;2023-08-21T11:47:16;8.30;;;5.43;;
78646;SDS011;67961;43.460;3.762;2023-08-21T11:49:43;11.48;;;5.90;;
78646;SDS011;67961;43.460;3.762;2023-08-21T11:52:12;11.32;;;5.82;;
78646;SDS011;67961;43.460;3.762;2023-08-21T11:54:39;13.35;;;5.82;;
78646;SDS011;67961;43.460;3.762;2023-08-21T11:57:11;12.45;;;6.20;;
78646;SDS011;67961;43.460;3.762;2023-08-21T11:59:38;9.45;;;6.00;;
78646;SDS011;67961;43.460;3.762;2023-08-21T12:02:21;13.23;;;6.15;;
78646;SDS011;67961;43.460;3.762;2023-08-21T12:04:52;13.20;;;6.97;;
78646;SDS011;67961;43.460;3.762;2023-08-21T12:07:19;13.85;;;6.35;;
78646;SDS011;67961;43.460;3.762;2023-08-21T12:09:47;14.43;;;6.68;;
78646;SDS011;67961;43.460;3.762;2023-08-21T12:12:16;9.48;;;6.10;;
78646;SDS011;67961;43.460;3.762;2023-08-21T12:14:42;9.25;;;6.55;;
78646;SDS011;67961;43.460;3.762;2023-08-21T12:17:08;9.90;;;6.15;;
78646;SDS011;67961;43.460;3.762;2023-08-21T12:19:33;10.18;;;5.82;;
78646;SDS011;67961;43.460;3.762;2023-08-21T12:21:59;12.65;;;6.13;;
78646;SDS011;67961;43.460;3.762;2023-08-21T12:24:25;8.38;;;5.72;;
78646;SDS011;67961;43.460;3.762;2023-08-21T12:26:50;11.23;;;6.22;;
78646;SDS011;67961;43.460;3.762;2023-08-21T12:29:16;13.23;;;6.65;;
78646;SDS011;67961;43.460;3.762;2023-08-21T12:31:42;15.82;;;5.53;;
78646;SDS011;67961;43.460;3.762;2023-08-21T12:34:07;15.18;;;6.57;;
78646;SDS011;67961;43.460;3.762;2023-08-21T12:36:34;8.60;;;5.55;;
78646;SDS011;67961;43.460;3.762;2023-08-21T12:39:01;18.60;;;6.22;;
78646;SDS011;67961;43.460;3.762;2023-08-21T12:41:28;12.55;;;5.80;;
78646;SDS011;67961;43.460;3.762;2023-08-21T12:43:54;12.30;;;5.97;;
78646;SDS011;67961;43.460;3.762;2023-08-21T12:46:20;13.63;;;5.80;;
78646;SDS011;67961;43.460;3.762;2023-08-21T12:48:46;14.00;;;5.82;;
78646;SDS011;67961;43.460;3.762;2023-08-21T12:51:11;14.25;;;5.63;;
78646;SDS011;67961;43.460;3.762;2023-08-21T12:53:37;15.63;;;6.28;;
78646;SDS011;67961;43.460;3.762;2023-08-21T12:56:03;14.52;;;5.95;;
78646;SDS011;67961;43.460;3.762;2023-08-21T12:58:29;10.73;;;5.97;;
78646;SDS011;67961;43.460;3.762;2023-08-21T13:00:55;11.80;;;6.15;;
78646;SDS011;67961;43.460;3.762;2023-08-21T13:03:20;9.63;;;5.03;;
78646;SDS011;67961;43.460;3.762;2023-08-21T13:05:46;14.15;;;5.80;;
78646;SDS011;67961;43.460;3.762;2023-08-21T13:08:12;19.08;;;6.60;;
78646;SDS011;67961;43.460;3.762;2023-08-21T13:10:39;12.10;;;5.55;;
78646;SDS011;67961;43.460;3.762;2023-08-21T13:13:04;10.20;;;5.32;;
78646;SDS011;67961;43.460;3.762;2023-08-21T13:15:30;14.98;;;5.80;;
78646;SDS011;67961;43.460;3.762;2023-08-21T13:17:56;10.05;;;6.10;;
78646;SDS011;67961;43.460;3.762;2023-08-21T13:20:22;11.95;;;5.22;;
78646;SDS011;67961;43.460;3.762;2023-08-21T13:22:49;18.33;;;5.78;;
78646;SDS011;67961;43.460;3.762;2023-08-21T13:25:20;10.05;;;5.18;;
78646;SDS011;67961;43.460;3.762;2023-08-21T13:27:48;11.68;;;5.80;;
78646;SDS011;67961;43.460;3.762;2023-08-21T13:30:14;10.65;;;5.65;;
78646;SDS011;67961;43.460;3.762;2023-08-21T13:32:40;15.75;;;5.70;;
78646;SDS011;67961;43.460;3.762;2023-08-21T13:35:06;13.38;;;5.25;;
78646;SDS011;67961;43.460;3.762;2023-08-21T13:37:34;10.52;;;5.15;;
78646;SDS011;67961;43.460;3.762;2023-08-21T13:39:59;12.23;;;6.22;;
78646;SDS011;67961;43.460;3.762;2023-08-21T13:42:26;8.50;;;5.55;;
78646;SDS011;67961;43.460;3.762;2023-08-21T13:44:55;12.02;;;6.35;;
78646;SDS011;67961;43.460;3.762;2023-08-21T13:47:22;14.70;;;5.88;;
78646;SDS011;67961;43.460;3.762;2023-08-21T13:49:48;11.23;;;5.97;;
78646;SDS011;67961;43.460;3.762;2023-08-21T13:52:13;17.40;;;5.90;;
78646;SDS011;67961;43.460;3.762;2023-08-21T13:54:39;13.60;;;5.82;;
78646;SDS011;67961;43.460;3.762;2023-08-21T13:57:04;13.20;;;5.38;;
78646;SDS011;67961;43.460;3.762;2023-08-21T13:59:30;12.02;;;4.88;;
78646;SDS011;67961;43.460;3.762;2023-08-21T14:01:55;10.50;;;5.05;;
78646;SDS011;67961;43.460;3.762;2023-08-21T14:04:21;15.75;;;4.95;;
78646;SDS011;67961;43.460;3.762;2023-08-21T14:06:47;14.07;;;6.20;;
78646;SDS011;67961;43.460;3.762;2023-08-21T14:09:12;16.27;;;5.55;;
78646;SDS011;67961;43.460;3.762;2023-08-21T14:11:38;19.02;;;5.82;;
78646;SDS011;67961;43.460;3.762;2023-08-21T14:14:04;11.55;;;5.80;;
78646;SDS011;67961;43.460;3.762;2023-08-21T14:16:29;12.70;;;5.82;;
78646;SDS011;67961;43.460;3.762;2023-08-21T14:18:55;13.05;;;5.22;;
78646;SDS011;67961;43.460;3.762;2023-08-21T14:21:20;12.77;;;5.53;;
78646;SDS011;67961;43.460;3.762;2023-08-21T14:23:46;13.48;;;5.88;;
78646;SDS011;67961;43.460;3.762;2023-08-21T14:26:12;13.70;;;6.30;;
78646;SDS011;67961;43.460;3.762;2023-08-21T14:28:37;11.45;;;5.75;;
78646;SDS011;67961;43.460;3.762;2023-08-21T14:31:03;10.02;;;7.25;;
78646;SDS011;67961;43.460;3.762;2023-08-21T14:33:29;13.05;;;6.15;;
78646;SDS011;67961;43.460;3.762;2023-08-21T14:35:55;15.23;;;6.15;;
78646;SDS011;67961;43.460;3.762;2023-08-21T14:38:21;11.07;;;5.78;;
78646;SDS011;67961;43.460;3.762;2023-08-21T14:40:47;10.25;;;5.63;;
78646;SDS011;67961;43.460;3.762;2023-08-21T14:43:14;25.15;;;14.77;;
78646;SDS011;67961;43.460;3.762;2023-08-21T14:45:40;13.85;;;7.20;;
78646;SDS011;67961;43.460;3.762;2023-08-21T14:48:07;10.68;;;5.00;;
78646;SDS011;67961;43.460;3.762;2023-08-21T14:50:33;11.20;;;5.93;;
78646;SDS011;67961;43.460;3.762;2023-08-21T14:52:58;15.20;;;5.30;;
78646;SDS011;67961;43.460;3.762;2023-08-21T14:55:24;16.10;;;6.32;;